sensor_id;sensor_type;location;lat;lon;timestamp;P1;durP1;ratioP1;P2;durP2;ratioP2
55545;SDS011;44768;50.298;127.520;2022-10-14T00:04:21;244.55;;;55.88;;
55545;SDS011;44768;50.298;127.520;2022-10-14T00:09:22;272.93;;;62.03;;
55545;SDS011;44768;50.298;127.520;2022-10-14T00:14:23;289.17;;;67.77;;
55545;SDS011;44768;50.298;127.520;2022-10-14T00:19:25;264.27;;;67.27;;
55545;SDS011;44768;50.298;127.520;2022-10-14T00:24:26;250.07;;;54.23;;
55545;SDS011;44768;50.298;127.520;2022-10-14T00:29:27;234.70;;;49.90;;
55545;SDS011;44768;50.298;127.520;2022-10-14T00:34:28;186.93;;;43.27;;
55545;SDS011;44768;50.298;127.520;2022-10-14T00:39:30;198.40;;;41.03;;
55545;SDS011;44768;50.298;127.520;2022-10-14T00:49:39;152.73;;;29.77;;
55545;SDS011;44768;50.298;127.520;2022-10-14T00:54:43;167.73;;;33.13;;
55545;SDS011;44768;50.298;127.520;2022-10-14T00:59:44;126.60;;;30.88;;
55545;SDS011;44768;50.298;127.520;2022-10-14T01:04:46;145.50;;;29.23;;
55545;SDS011;44768;50.298;127.520;2022-10-14T01:20:22;84.22;;;23.25;;
55545;SDS011;44768;50.298;127.520;2022-10-14T01:30:32;115.20;;;19.08;;
55545;SDS011;44768;50.298;127.520;2022-10-14T01:40:58;151.25;;;18.50;;
55545;SDS011;44768;50.298;127.520;2022-10-14T01:46:03;160.48;;;21.83;;
55545;SDS011;44768;50.298;127.520;2022-10-14T01:51:09;93.30;;;17.30;;
55545;SDS011;44768;50.298;127.520;2022-10-14T01:56:11;90.22;;;17.75;;
55545;SDS011;44768;50.298;127.520;2022-10-14T02:01:14;77.60;;;15.60;;
55545;SDS011;44768;50.298;127.520;2022-10-14T02:11:17;73.95;;;13.32;;
55545;SDS011;44768;50.298;127.520;2022-10-14T02:26:48;122.80;;;17.95;;
55545;SDS011;44768;50.298;127.520;2022-10-14T02:31:51;88.20;;;13.77;;
55545;SDS011;44768;50.298;127.520;2022-10-14T02:36:53;54.63;;;10.43;;
55545;SDS011;44768;50.298;127.520;2022-10-14T02:41:54;55.95;;;10.13;;
55545;SDS011;44768;50.298;127.520;2022-10-14T02:46:56;341.33;;;18.42;;
55545;SDS011;44768;50.298;127.520;2022-10-14T02:51:57;82.07;;;8.60;;
55545;SDS011;44768;50.298;127.520;2022-10-14T02:56:59;52.90;;;7.45;;
55545;SDS011;44768;50.298;127.520;2022-10-14T03:07:01;43.50;;;6.13;;
55545;SDS011;44768;50.298;127.520;2022-10-14T03:12:02;52.20;;;5.90;;
55545;SDS011;44768;50.298;127.520;2022-10-14T03:17:04;47.40;;;5.93;;
55545;SDS011;44768;50.298;127.520;2022-10-14T03:22:05;68.97;;;6.45;;
55545;SDS011;44768;50.298;127.520;2022-10-14T03:27:06;44.72;;;8.35;;
55545;SDS011;44768;50.298;127.520;2022-10-14T03:32:07;23.50;;;5.18;;
55545;SDS011;44768;50.298;127.520;2022-10-14T03:37:08;29.23;;;4.15;;
55545;SDS011;44768;50.298;127.520;2022-10-14T03:42:09;45.97;;;5.95;;
55545;SDS011;44768;50.298;127.520;2022-10-14T03:47:10;24.33;;;4.30;;
55545;SDS011;44768;50.298;127.520;2022-10-14T03:52:12;23.52;;;3.50;;
55545;SDS011;44768;50.298;127.520;2022-10-14T03:57:13;20.73;;;4.32;;
55545;SDS011;44768;50.298;127.520;2022-10-14T04:07:15;23.90;;;2.95;;
55545;SDS011;44768;50.298;127.520;2022-10-14T04:12:17;8.20;;;2.92;;
55545;SDS011;44768;50.298;127.520;2022-10-14T04:17:18;29.42;;;5.80;;
55545;SDS011;44768;50.298;127.520;2022-10-14T04:22:19;34.88;;;9.23;;
55545;SDS011;44768;50.298;127.520;2022-10-14T04:27:22;21.27;;;2.30;;
55545;SDS011;44768;50.298;127.520;2022-10-14T04:32:23;36.38;;;3.92;;
55545;SDS011;44768;50.298;127.520;2022-10-14T04:37:24;35.17;;;3.13;;
55545;SDS011;44768;50.298;127.520;2022-10-14T04:42:26;70.28;;;5.28;;
55545;SDS011;44768;50.298;127.520;2022-10-14T04:47:27;149.82;;;6.93;;
55545;SDS011;44768;50.298;127.520;2022-10-14T04:52:28;48.95;;;4.20;;
55545;SDS011;44768;50.298;127.520;2022-10-14T04:57:29;31.23;;;3.05;;
55545;SDS011;44768;50.298;127.520;2022-10-14T05:02:31;26.98;;;2.78;;
55545;SDS011;44768;50.298;127.520;2022-10-14T05:07:32;19.20;;;2.65;;
55545;SDS011;44768;50.298;127.520;2022-10-14T05:12:34;56.55;;;4.03;;
55545;SDS011;44768;50.298;127.520;2022-10-14T05:28:45;13.27;;;2.55;;
55545;SDS011;44768;50.298;127.520;2022-10-14T05:33:46;14.68;;;2.50;;
55545;SDS011;44768;50.298;127.520;2022-10-14T05:38:47;13.18;;;2.50;;
55545;SDS011;44768;50.298;127.520;2022-10-14T05:44:44;13.27;;;2.25;;
55545;SDS011;44768;50.298;127.520;2022-10-14T05:49:45;9.75;;;2.30;;
55545;SDS011;44768;50.298;127.520;2022-10-14T05:54:47;17.00;;;3.00;;
55545;SDS011;44768;50.298;127.520;2022-10-14T05:59:49;28.63;;;3.40;;
55545;SDS011;44768;50.298;127.520;2022-10-14T06:04:51;31.15;;;3.15;;
55545;SDS011;44768;50.298;127.520;2022-10-14T06:09:54;17.83;;;2.47;;
55545;SDS011;44768;50.298;127.520;2022-10-14T06:14:55;19.63;;;2.72;;
55545;SDS011;44768;50.298;127.520;2022-10-14T06:19:56;11.85;;;2.80;;
55545;SDS011;44768;50.298;127.520;2022-10-14T06:24:58;21.27;;;2.60;;
55545;SDS011;44768;50.298;127.520;2022-10-14T06:29:59;10.15;;;3.25;;
55545;SDS011;44768;50.298;127.520;2022-10-14T06:35:00;20.75;;;3.30;;
55545;SDS011;44768;50.298;127.520;2022-10-14T06:40:02;28.77;;;3.58;;
55545;SDS011;44768;50.298;127.520;2022-10-14T06:45:07;76.35;;;4.32;;
55545;SDS011;44768;50.298;127.520;2022-10-14T06:50:08;41.95;;;3.72;;
55545;SDS011;44768;50.298;127.520;2022-10-14T06:55:09;18.77;;;3.08;;
55545;SDS011;44768;50.298;127.520;2022-10-14T07:00:12;45.33;;;4.15;;
55545;SDS011;44768;50.298;127.520;2022-10-14T07:05:14;32.67;;;3.53;;
55545;SDS011;44768;50.298;127.520;2022-10-14T07:10:16;55.33;;;4.97;;
55545;SDS011;44768;50.298;127.520;2022-10-14T07:15:18;20.95;;;3.53;;
55545;SDS011;44768;50.298;127.520;2022-10-14T07:20:19;26.27;;;4.28;;
55545;SDS011;44768;50.298;127.520;2022-10-14T07:25:20;25.77;;;3.67;;
55545;SDS011;44768;50.298;127.520;2022-10-14T07:30:22;70.50;;;5.55;;
55545;SDS011;44768;50.298;127.520;2022-10-14T07:35:23;111.35;;;7.43;;
55545;SDS011;44768;50.298;127.520;2022-10-14T07:40:26;69.03;;;5.40;;
55545;SDS011;44768;50.298;127.520;2022-10-14T07:50:34;34.50;;;5.55;;
55545;SDS011;44768;50.298;127.520;2022-10-14T07:55:35;27.05;;;4.55;;
55545;SDS011;44768;50.298;127.520;2022-10-14T08:00:44;46.60;;;7.53;;
55545;SDS011;44768;50.298;127.520;2022-10-14T08:05:46;58.30;;;6.40;;
55545;SDS011;44768;50.298;127.520;2022-10-14T08:10:47;42.33;;;5.85;;
55545;SDS011;44768;50.298;127.520;2022-10-14T08:15:51;56.88;;;6.72;;
55545;SDS011;44768;50.298;127.520;2022-10-14T08:20:53;42.80;;;5.85;;
55545;SDS011;44768;50.298;127.520;2022-10-14T08:25:54;84.47;;;6.65;;
55545;SDS011;44768;50.298;127.520;2022-10-14T08:30:55;45.90;;;6.82;;
55545;SDS011;44768;50.298;127.520;2022-10-14T08:35:56;84.68;;;7.13;;
55545;SDS011;44768;50.298;127.520;2022-10-14T08:51:24;144.20;;;10.27;;
55545;SDS011;44768;50.298;127.520;2022-10-14T08:56:27;144.85;;;9.52;;
55545;SDS011;44768;50.298;127.520;2022-10-14T09:06:31;110.28;;;11.20;;
55545;SDS011;44768;50.298;127.520;2022-10-14T09:11:35;103.43;;;10.30;;
55545;SDS011;44768;50.298;127.520;2022-10-14T09:16:38;51.25;;;9.80;;
55545;SDS011;44768;50.298;127.520;2022-10-14T09:22:02;120.53;;;12.82;;
55545;SDS011;44768;50.298;127.520;2022-10-14T09:27:03;84.22;;;12.52;;
55545;SDS011;44768;50.298;127.520;2022-10-14T09:32:06;78.47;;;11.85;;
55545;SDS011;44768;50.298;127.520;2022-10-14T09:42:23;125.00;;;11.23;;
55545;SDS011;44768;50.298;127.520;2022-10-14T09:47:26;43.08;;;7.70;;
55545;SDS011;44768;50.298;127.520;2022-10-14T09:52:28;60.22;;;7.70;;
55545;SDS011;44768;50.298;127.520;2022-10-14T09:57:30;77.63;;;9.40;;
55545;SDS011;44768;50.298;127.520;2022-10-14T10:02:36;36.38;;;8.50;;
55545;SDS011;44768;50.298;127.520;2022-10-14T10:07:41;38.28;;;10.00;;
55545;SDS011;44768;50.298;127.520;2022-10-14T10:12:42;68.17;;;12.93;;
55545;SDS011;44768;50.298;127.520;2022-10-14T10:17:50;73.35;;;17.15;;
55545;SDS011;44768;50.298;127.520;2022-10-14T10:22:51;75.18;;;16.75;;
55545;SDS011;44768;50.298;127.520;2022-10-14T10:27:53;140.67;;;20.00;;
55545;SDS011;44768;50.298;127.520;2022-10-14T10:38:12;75.72;;;14.68;;
55545;SDS011;44768;50.298;127.520;2022-10-14T10:43:23;93.50;;;14.57;;
55545;SDS011;44768;50.298;127.520;2022-10-14T10:48:32;44.28;;;11.75;;
55545;SDS011;44768;50.298;127.520;2022-10-14T10:53:48;57.13;;;10.82;;
55545;SDS011;44768;50.298;127.520;2022-10-14T11:09:34;75.57;;;9.60;;
55545;SDS011;44768;50.298;127.520;2022-10-14T11:15:12;35.85;;;8.18;;
55545;SDS011;44768;50.298;127.520;2022-10-14T11:25:44;67.07;;;9.38;;
55545;SDS011;44768;50.298;127.520;2022-10-14T11:36:15;21.90;;;7.72;;
55545;SDS011;44768;50.298;127.520;2022-10-14T11:41:27;28.05;;;7.40;;
55545;SDS011;44768;50.298;127.520;2022-10-14T11:46:34;20.45;;;7.47;;
55545;SDS011;44768;50.298;127.520;2022-10-14T11:52:18;60.97;;;7.97;;
55545;SDS011;44768;50.298;127.520;2022-10-14T11:57:15;46.00;;;8.00;;
55545;SDS011;44768;50.298;127.520;2022-10-14T12:07:28;17.40;;;8.20;;
55545;SDS011;44768;50.298;127.520;2022-10-14T12:12:32;39.17;;;9.82;;
55545;SDS011;44768;50.298;127.520;2022-10-14T12:17:37;32.25;;;8.27;;
55545;SDS011;44768;50.298;127.520;2022-10-14T12:22:43;31.02;;;9.00;;
55545;SDS011;44768;50.298;127.520;2022-10-14T12:27:46;29.40;;;8.85;;
55545;SDS011;44768;50.298;127.520;2022-10-14T12:32:57;48.78;;;9.32;;
55545;SDS011;44768;50.298;127.520;2022-10-14T12:38:03;29.80;;;7.85;;
55545;SDS011;44768;50.298;127.520;2022-10-14T12:43:13;27.30;;;7.50;;
55545;SDS011;44768;50.298;127.520;2022-10-14T12:48:16;47.97;;;9.15;;
55545;SDS011;44768;50.298;127.520;2022-10-14T12:53:24;50.33;;;9.02;;
55545;SDS011;44768;50.298;127.520;2022-10-14T12:58:35;37.20;;;9.70;;
55545;SDS011;44768;50.298;127.520;2022-10-14T13:03:43;37.70;;;9.20;;
55545;SDS011;44768;50.298;127.520;2022-10-14T13:09:29;34.92;;;7.80;;
55545;SDS011;44768;50.298;127.520;2022-10-14T13:24:39;55.90;;;8.43;;
55545;SDS011;44768;50.298;127.520;2022-10-14T13:30:31;39.67;;;8.23;;
55545;SDS011;44768;50.298;127.520;2022-10-14T13:35:20;38.97;;;8.60;;
55545;SDS011;44768;50.298;127.520;2022-10-14T13:40:35;29.75;;;10.98;;
55545;SDS011;44768;50.298;127.520;2022-10-14T13:45:38;50.00;;;17.25;;
55545;SDS011;44768;50.298;127.520;2022-10-14T13:50:41;55.08;;;17.90;;
55545;SDS011;44768;50.298;127.520;2022-10-14T13:55:44;52.13;;;16.30;;
55545;SDS011;44768;50.298;127.520;2022-10-14T14:00:50;71.10;;;15.98;;
55545;SDS011;44768;50.298;127.520;2022-10-14T14:05:52;57.08;;;15.65;;
55545;SDS011;44768;50.298;127.520;2022-10-14T14:10:57;72.20;;;17.95;;
55545;SDS011;44768;50.298;127.520;2022-10-14T14:16:00;75.63;;;20.85;;
55545;SDS011;44768;50.298;127.520;2022-10-14T14:21:01;89.37;;;21.47;;
55545;SDS011;44768;50.298;127.520;2022-10-14T14:26:03;64.30;;;20.63;;
55545;SDS011;44768;50.298;127.520;2022-10-14T14:31:05;64.15;;;20.83;;
55545;SDS011;44768;50.298;127.520;2022-10-14T14:36:15;100.78;;;22.92;;
55545;SDS011;44768;50.298;127.520;2022-10-14T14:41:24;74.05;;;19.27;;
55545;SDS011;44768;50.298;127.520;2022-10-14T14:51:34;94.20;;;21.80;;
55545;SDS011;44768;50.298;127.520;2022-10-14T14:56:40;90.03;;;21.45;;
55545;SDS011;44768;50.298;127.520;2022-10-14T15:01:42;106.30;;;23.35;;
55545;SDS011;44768;50.298;127.520;2022-10-14T15:06:47;85.10;;;23.27;;
55545;SDS011;44768;50.298;127.520;2022-10-14T15:11:50;78.57;;;22.70;;
55545;SDS011;44768;50.298;127.520;2022-10-14T15:16:52;101.32;;;23.73;;
55545;SDS011;44768;50.298;127.520;2022-10-14T15:32:36;101.80;;;23.60;;
55545;SDS011;44768;50.298;127.520;2022-10-14T15:37:37;77.60;;;23.87;;
55545;SDS011;44768;50.298;127.520;2022-10-14T15:42:39;79.63;;;22.43;;
55545;SDS011;44768;50.298;127.520;2022-10-14T15:47:40;75.37;;;19.83;;
55545;SDS011;44768;50.298;127.520;2022-10-14T15:52:41;82.97;;;20.13;;
55545;SDS011;44768;50.298;127.520;2022-10-14T15:57:42;80.17;;;20.07;;
55545;SDS011;44768;50.298;127.520;2022-10-14T16:02:44;85.30;;;22.40;;
55545;SDS011;44768;50.298;127.520;2022-10-14T16:07:46;96.97;;;25.92;;
55545;SDS011;44768;50.298;127.520;2022-10-14T16:12:48;75.55;;;26.95;;
55545;SDS011;44768;50.298;127.520;2022-10-14T16:17:49;86.60;;;24.30;;
55545;SDS011;44768;50.298;127.520;2022-10-14T16:22:51;58.05;;;20.70;;
55545;SDS011;44768;50.298;127.520;2022-10-14T16:32:54;70.25;;;22.23;;
55545;SDS011;44768;50.298;127.520;2022-10-14T16:37:55;70.93;;;22.63;;
55545;SDS011;44768;50.298;127.520;2022-10-14T16:42:57;69.53;;;24.52;;
55545;SDS011;44768;50.298;127.520;2022-10-14T16:47:58;74.60;;;21.73;;
55545;SDS011;44768;50.298;127.520;2022-10-14T16:53:00;81.75;;;22.95;;
55545;SDS011;44768;50.298;127.520;2022-10-14T16:58:19;65.60;;;21.50;;
55545;SDS011;44768;50.298;127.520;2022-10-14T17:03:20;63.20;;;19.20;;
55545;SDS011;44768;50.298;127.520;2022-10-14T17:08:22;49.03;;;19.90;;
55545;SDS011;44768;50.298;127.520;2022-10-14T17:13:23;61.07;;;20.77;;
55545;SDS011;44768;50.298;127.520;2022-10-14T17:18:25;70.50;;;21.75;;
55545;SDS011;44768;50.298;127.520;2022-10-14T17:23:30;69.18;;;25.08;;
55545;SDS011;44768;50.298;127.520;2022-10-14T17:28:32;64.90;;;24.73;;
55545;SDS011;44768;50.298;127.520;2022-10-14T17:33:33;83.07;;;24.83;;
55545;SDS011;44768;50.298;127.520;2022-10-14T17:38:34;67.43;;;22.40;;
55545;SDS011;44768;50.298;127.520;2022-10-14T17:43:36;67.93;;;20.50;;
55545;SDS011;44768;50.298;127.520;2022-10-14T17:48:37;62.63;;;21.95;;
55545;SDS011;44768;50.298;127.520;2022-10-14T17:53:41;56.83;;;21.10;;
55545;SDS011;44768;50.298;127.520;2022-10-14T17:58:43;55.43;;;19.67;;
55545;SDS011;44768;50.298;127.520;2022-10-14T18:03:44;54.87;;;20.87;;
55545;SDS011;44768;50.298;127.520;2022-10-14T18:08:50;52.38;;;19.40;;
55545;SDS011;44768;50.298;127.520;2022-10-14T18:13:53;52.47;;;17.85;;
55545;SDS011;44768;50.298;127.520;2022-10-14T18:18:59;53.90;;;16.77;;
55545;SDS011;44768;50.298;127.520;2022-10-14T18:24:01;45.90;;;15.45;;
55545;SDS011;44768;50.298;127.520;2022-10-14T18:29:03;42.65;;;15.73;;
55545;SDS011;44768;50.298;127.520;2022-10-14T18:34:05;38.40;;;13.80;;
55545;SDS011;44768;50.298;127.520;2022-10-14T18:39:07;57.20;;;14.80;;
55545;SDS011;44768;50.298;127.520;2022-10-14T18:44:09;37.92;;;13.90;;
55545;SDS011;44768;50.298;127.520;2022-10-14T18:49:11;30.87;;;13.80;;
55545;SDS011;44768;50.298;127.520;2022-10-14T18:54:13;31.00;;;14.60;;
55545;SDS011;44768;50.298;127.520;2022-10-14T18:59:18;34.08;;;16.67;;
55545;SDS011;44768;50.298;127.520;2022-10-14T19:04:20;37.45;;;17.63;;
55545;SDS011;44768;50.298;127.520;2022-10-14T19:09:22;45.70;;;17.40;;
55545;SDS011;44768;50.298;127.520;2022-10-14T19:14:30;35.25;;;18.50;;
55545;SDS011;44768;50.298;127.520;2022-10-14T19:19:32;37.60;;;18.77;;
55545;SDS011;44768;50.298;127.520;2022-10-14T19:24:33;44.05;;;18.45;;
55545;SDS011;44768;50.298;127.520;2022-10-14T19:29:35;50.20;;;19.23;;
55545;SDS011;44768;50.298;127.520;2022-10-14T19:34:36;48.17;;;20.43;;
55545;SDS011;44768;50.298;127.520;2022-10-14T19:39:38;46.72;;;20.92;;
55545;SDS011;44768;50.298;127.520;2022-10-14T19:44:39;35.58;;;20.40;;
55545;SDS011;44768;50.298;127.520;2022-10-14T19:49:40;38.43;;;21.20;;
55545;SDS011;44768;50.298;127.520;2022-10-14T19:54:41;48.73;;;23.03;;
55545;SDS011;44768;50.298;127.520;2022-10-14T19:59:42;42.13;;;21.77;;
55545;SDS011;44768;50.298;127.520;2022-10-14T20:04:43;51.90;;;21.37;;
55545;SDS011;44768;50.298;127.520;2022-10-14T20:09:45;39.45;;;22.25;;
55545;SDS011;44768;50.298;127.520;2022-10-14T20:14:47;39.70;;;22.35;;
55545;SDS011;44768;50.298;127.520;2022-10-14T20:19:49;43.38;;;22.58;;
55545;SDS011;44768;50.298;127.520;2022-10-14T20:24:50;49.92;;;25.42;;
55545;SDS011;44768;50.298;127.520;2022-10-14T20:29:52;63.10;;;27.48;;
55545;SDS011;44768;50.298;127.520;2022-10-14T20:34:53;57.63;;;26.93;;
55545;SDS011;44768;50.298;127.520;2022-10-14T20:39:54;63.27;;;29.63;;
55545;SDS011;44768;50.298;127.520;2022-10-14T20:44:55;53.70;;;29.57;;
55545;SDS011;44768;50.298;127.520;2022-10-14T20:49:56;58.90;;;31.07;;
55545;SDS011;44768;50.298;127.520;2022-10-14T20:54:57;54.83;;;31.53;;
55545;SDS011;44768;50.298;127.520;2022-10-14T20:59:59;59.60;;;33.63;;
55545;SDS011;44768;50.298;127.520;2022-10-14T21:05:00;67.43;;;35.37;;
55545;SDS011;44768;50.298;127.520;2022-10-14T21:10:01;53.13;;;33.93;;
55545;SDS011;44768;50.298;127.520;2022-10-14T21:15:04;67.05;;;34.40;;
55545;SDS011;44768;50.298;127.520;2022-10-14T21:25:07;68.97;;;36.15;;
55545;SDS011;44768;50.298;127.520;2022-10-14T21:30:09;75.32;;;39.83;;
55545;SDS011;44768;50.298;127.520;2022-10-14T21:35:11;77.05;;;44.58;;
55545;SDS011;44768;50.298;127.520;2022-10-14T21:40:12;85.13;;;46.80;;
55545;SDS011;44768;50.298;127.520;2022-10-14T21:50:15;92.53;;;49.72;;
55545;SDS011;44768;50.298;127.520;2022-10-14T21:55:16;97.10;;;54.90;;
55545;SDS011;44768;50.298;127.520;2022-10-14T22:00:17;116.47;;;60.73;;
55545;SDS011;44768;50.298;127.520;2022-10-14T22:05:19;120.33;;;61.93;;
55545;SDS011;44768;50.298;127.520;2022-10-14T22:10:20;114.38;;;63.95;;
55545;SDS011;44768;50.298;127.520;2022-10-14T22:15:41;122.72;;;63.42;;
55545;SDS011;44768;50.298;127.520;2022-10-14T22:20:42;122.70;;;65.68;;
55545;SDS011;44768;50.298;127.520;2022-10-14T22:25:44;130.90;;;70.70;;
55545;SDS011;44768;50.298;127.520;2022-10-14T22:30:45;131.52;;;71.18;;
55545;SDS011;44768;50.298;127.520;2022-10-14T22:35:47;136.05;;;76.05;;
55545;SDS011;44768;50.298;127.520;2022-10-14T22:40:50;158.48;;;78.30;;
55545;SDS011;44768;50.298;127.520;2022-10-14T22:46:01;145.27;;;80.45;;
55545;SDS011;44768;50.298;127.520;2022-10-14T22:51:04;150.73;;;77.93;;
55545;SDS011;44768;50.298;127.520;2022-10-14T22:56:06;148.13;;;79.65;;
55545;SDS011;44768;50.298;127.520;2022-10-14T23:01:09;143.95;;;77.20;;
55545;SDS011;44768;50.298;127.520;2022-10-14T23:06:11;164.55;;;75.60;;
55545;SDS011;44768;50.298;127.520;2022-10-14T23:16:15;152.93;;;76.07;;
55545;SDS011;44768;50.298;127.520;2022-10-14T23:21:24;154.85;;;76.82;;
55545;SDS011;44768;50.298;127.520;2022-10-14T23:26:27;128.88;;;75.45;;
55545;SDS011;44768;50.298;127.520;2022-10-14T23:31:31;127.90;;;68.53;;
55545;SDS011;44768;50.298;127.520;2022-10-14T23:36:33;116.70;;;64.32;;
55545;SDS011;44768;50.298;127.520;2022-10-14T23:41:34;115.27;;;63.30;;
55545;SDS011;44768;50.298;127.520;2022-10-14T23:46:36;127.03;;;59.80;;
55545;SDS011;44768;50.298;127.520;2022-10-14T23:51:37;141.90;;;55.80;;
55545;SDS011;44768;50.298;127.520;2022-10-14T23:56:38;143.83;;;37.53;;
